Yonkers, New York
Current Conditions -  °F | °C
As of 5:51 AM on Wednesday 22 Oct 2014 (Local Time) from KTEB Reporting Station
Light Rain Light Rain  
Wind Chill: 56°   Ceiling: 2800
Heat Index: 56°   Visibility: 10mi
Dew Point: 52°   Wind: 8mph
Humidity: 87%   Direction: 10°N
Pressure: 29.9"   Gusts: NA
Location:  40.93°N, 73.9°W
Report Text: KTEB 220951Z 01007KT 10SM -RA SCT018 BKN028 OVC070 13/11 A2990 RMK AO2 SLP123 OCNL LTGCGICCCCA VC P0003 T01330111
Loading
Personal Weather Stations






























Interactive Weather Map
Tropical Storm Tracking
New forecast layout! Learn more

10-Day Weather Forecast

Advertisements
Track Severe Weather on mobile